Time;durP1;ratioP1;P1;durP2;ratioP2;P2;SDS_P1;SDS_P2;PMS_P1;PMS_P2;Temp;Humidity;BMP_temperature;BMP_pressure;BME280_temperature;BME280_humidity;BME280_pressure;Samples;Min_cycle;Max_cycle;Signal;HPM_P1;HPM_P2
2021/12/30 00:01:29;;;;;;;16.43;8.27;;;;;;;0.69;100.00;100118.50;4976579;28;20495;-85
2021/12/30 00:03:57;;;;;;;15.80;8.83;;;;;;;0.69;100.00;100122.81;4942667;28;20763;-86
2021/12/30 00:06:24;;;;;;;17.40;9.07;;;;;;;0.70;100.00;100119.38;4976923;28;20046;-85
2021/12/30 00:08:53;;;;;;;14.20;8.27;;;;;;;0.71;100.00;100105.50;4943773;28;20472;-85
2021/12/30 00:11:20;;;;;;;18.17;8.37;;;;;;;0.69;100.00;100117.63;4960645;28;20056;-86
2021/12/30 00:13:48;;;;;;;15.10;8.23;;;;;;;0.72;100.00;100115.91;4944272;28;20046;-84
2021/12/30 00:16:17;;;;;;;16.87;9.83;;;;;;;0.76;100.00;100117.72;4944837;28;20046;-85
2021/12/30 00:18:49;;;;;;;16.10;7.83;;;;;;;0.77;100.00;100110.78;4943834;28;20042;-85
2021/12/30 00:21:20;;;;;;;14.10;8.23;;;;;;;0.79;100.00;100106.47;4944019;28;20073;-85
2021/12/30 00:23:47;;;;;;;17.73;8.83;;;;;;;0.80;100.00;100111.66;4961698;28;20125;-85
2021/12/30 00:26:17;;;;;;;14.77;8.27;;;;;;;0.80;100.00;100113.41;4960276;28;20112;-85
2021/12/30 00:28:44;;;;;;;16.73;8.87;;;;;;;0.80;100.00;100116.00;4975284;28;20069;-85
2021/12/30 00:31:11;;;;;;;16.70;9.10;;;;;;;0.77;100.00;100116.84;4959951;28;20055;-86
2021/12/30 00:33:40;;;;;;;16.33;8.80;;;;;;;0.78;100.00;100113.38;4973962;28;20053;-84
2021/12/30 00:36:08;;;;;;;17.30;9.63;;;;;;;0.83;100.00;100116.00;4959868;28;20049;-84
2021/12/30 00:38:37;;;;;;;17.43;9.10;;;;;;;0.83;100.00;100127.28;4975019;28;20253;-85
2021/12/30 00:41:04;;;;;;;13.47;7.80;;;;;;;0.84;100.00;100125.56;4960846;28;20042;-85
2021/12/30 00:43:32;;;;;;;14.63;8.17;;;;;;;0.83;100.00;100129.88;4974230;28;20046;-85
2021/12/30 00:45:59;;;;;;;18.23;9.60;;;;;;;0.83;100.00;100126.41;4960004;28;20500;-85
2021/12/30 00:48:26;;;;;;;16.10;9.00;;;;;;;0.81;100.00;100128.13;4959203;28;20141;-85
2021/12/30 00:50:53;;;;;;;17.00;8.50;;;;;;;0.78;100.00;100128.97;4945828;28;20411;-84
2021/12/30 00:53:20;;;;;;;19.93;8.63;;;;;;;0.82;100.00;100129.88;4974141;28;20052;-84
2021/12/30 00:55:48;;;;;;;18.20;8.77;;;;;;;0.83;100.00;100124.69;4968555;28;20050;-85
2021/12/30 00:58:15;;;;;;;18.67;9.23;;;;;;;0.80;100.00;100129.88;4942656;28;20504;-85
2021/12/30 01:00:44;;;;;;;16.03;8.50;;;;;;;0.76;100.00;100128.09;4959353;28;20053;-85
2021/12/30 01:03:12;;;;;;;17.60;8.23;;;;;;;0.78;100.00;100128.97;4943116;28;20049;-85
2021/12/30 01:05:39;;;;;;;14.53;7.83;;;;;;;0.79;100.00;100132.47;4990687;28;20057;-85
2021/12/30 01:08:07;;;;;;;15.87;7.23;;;;;;;0.81;100.00;100129.00;4975938;28;20042;-86
2021/12/30 01:10:37;;;;;;;14.03;7.47;;;;;;;0.81;100.00;100120.34;4943712;28;20133;-84
2021/12/30 01:13:06;;;;;;;15.90;7.03;;;;;;;0.85;100.00;100119.53;4959707;28;20534;-84
2021/12/30 01:15:47;;;;;;;14.73;6.93;;;;;;;0.90;100.00;100117.81;4943114;28;20092;-85
2021/12/30 01:18:27;;;;;;;16.97;7.67;;;;;;;0.88;100.00;100118.69;4960341;28;20440;-85
2021/12/30 01:20:54;;;;;;;14.50;6.90;;;;;;;0.91;100.00;100124.75;4976954;28;20039;-83
2021/12/30 01:23:21;;;;;;;11.07;6.43;;;;;;;0.87;100.00;100124.75;4973438;28;20263;-82
2021/12/30 01:25:48;;;;;;;14.70;7.43;;;;;;;0.88;100.00;100123.88;4940013;28;21355;-82
2021/12/30 01:28:15;;;;;;;15.83;7.87;;;;;;;0.90;100.00;100111.75;4943891;28;20038;-82
2021/12/30 01:30:42;;;;;;;14.07;8.63;;;;;;;0.91;100.00;100114.38;4952748;28;20043;-83
2021/12/30 01:33:09;;;;;;;17.90;7.63;;;;;;;0.91;100.00;100116.97;4967772;28;20046;-83
2021/12/30 01:35:36;;;;;;;19.43;8.27;;;;;;;0.92;100.00;100118.69;4956656;28;20074;-83
2021/12/30 01:38:03;;;;;;;17.57;8.00;;;;;;;0.92;100.00;100118.69;4952641;28;20042;-82
2021/12/30 01:40:30;;;;;;;20.30;8.40;;;;;;;0.92;100.00;100126.50;4956951;28;20045;-83
2021/12/30 01:42:57;;;;;;;16.17;9.27;;;;;;;0.93;100.00;100114.41;4974599;28;20046;-83
2021/12/30 01:45:24;;;;;;;19.27;8.90;;;;;;;0.94;100.00;100117.00;4970621;28;20058;-83
2021/12/30 01:47:53;;;;;;;20.37;11.00;;;;;;;0.93;100.00;100122.22;4955448;28;20066;-82
2021/12/30 01:50:22;;;;;;;19.23;9.57;;;;;;;0.95;100.00;100123.97;4951674;28;20042;-82
2021/12/30 01:52:49;;;;;;;16.63;8.10;;;;;;;0.91;100.00;100118.69;4958932;28;20042;-82
2021/12/30 01:55:16;;;;;;;17.90;9.17;;;;;;;0.93;100.00;100124.81;4973964;28;20034;-84
2021/12/30 01:57:43;;;;;;;18.13;8.83;;;;;;;0.92;100.00;100126.50;4939432;28;20054;-82
2021/12/30 02:00:12;;;;;;;17.63;8.50;;;;;;;1.01;100.00;100134.44;4956947;28;20045;-82
2021/12/30 02:02:39;;;;;;;14.33;7.20;;;;;;;0.96;100.00;100143.91;4959417;28;20050;-83
2021/12/30 02:05:07;;;;;;;14.57;7.33;;;;;;;0.97;100.00;100148.25;4957525;28;20134;-83
2021/12/30 02:07:34;;;;;;;15.83;8.07;;;;;;;0.95;100.00;100142.16;4975542;28;20560;-82
2021/12/30 02:10:02;;;;;;;16.30;7.67;;;;;;;0.96;100.00;100128.28;4974749;28;20042;-82
2021/12/30 02:12:36;;;;;;;13.70;7.43;;;;;;;1.00;100.00;100121.38;4951293;28;20073;-83
2021/12/30 02:15:05;;;;;;;16.00;7.70;;;;;;;0.97;100.00;100132.63;4959115;28;20042;-82
2021/12/30 02:17:32;;;;;;;14.73;7.83;;;;;;;1.00;100.00;100135.25;4972154;28;20042;-82
2021/12/30 02:20:00;;;;;;;12.23;6.83;;;;;;;1.00;100.00;100122.25;4960726;28;20053;-83
2021/12/30 02:22:27;;;;;;;18.53;8.40;;;;;;;1.00;100.00;100122.25;4975274;28;20046;-83
2021/12/30 02:24:53;;;;;;;14.10;6.80;;;;;;;1.01;100.00;100139.63;4950423;28;20184;-82
2021/12/30 02:27:20;;;;;;;16.17;8.20;;;;;;;1.03;100.00;100144.84;4959502;28;20054;-83
2021/12/30 02:29:47;;;;;;;15.37;7.57;;;;;;;1.02;100.00;100130.09;4952918;28;20046;-83
2021/12/30 02:32:14;;;;;;;15.00;6.87;;;;;;;1.04;100.00;100123.16;4963675;28;20102;-82
2021/12/30 02:34:41;;;;;;;15.23;7.17;;;;;;;1.03;100.00;100127.50;4935716;28;20630;-83
2021/12/30 02:37:07;;;;;;;15.43;7.50;;;;;;;1.03;100.00;100126.63;4968168;28;20038;-83
2021/12/30 02:39:34;;;;;;;11.77;6.13;;;;;;;1.02;100.00;100128.38;4967250;28;20465;-82
2021/12/30 02:42:01;;;;;;;15.83;7.37;;;;;;;1.03;100.00;100122.31;4942059;28;20057;-82
2021/12/30 02:44:27;;;;;;;12.73;7.00;;;;;;;1.00;100.00;100117.03;4959557;28;20039;-84
2021/12/30 02:46:55;;;;;;;14.63;6.50;;;;;;;0.98;100.00;100129.19;4942732;28;20049;-83
2021/12/30 02:49:21;;;;;;;14.13;7.33;;;;;;;0.97;100.00;100119.63;4971751;28;20092;-83
2021/12/30 02:51:49;;;;;;;17.13;7.60;;;;;;;0.92;100.00;100113.50;4941489;28;20539;-84
2021/12/30 02:54:16;;;;;;;17.37;8.70;;;;;;;0.91;100.00;100122.16;4954279;28;20050;-84
2021/12/30 02:56:47;;;;;;;14.83;6.07;;;;;;;0.94;100.00;100117.00;4950857;28;20046;-84
2021/12/30 02:59:15;;;;;;;12.50;6.30;;;;;;;0.94;100.00;100113.53;4975479;28;20046;-84
2021/12/30 03:01:42;;;;;;;12.03;6.93;;;;;;;0.94;100.00;100114.41;4969255;28;20137;-84
2021/12/30 03:04:10;;;;;;;11.53;6.23;;;;;;;0.96;100.00;100120.50;4955863;28;20130;-84
2021/12/30 03:06:37;;;;;;;11.13;6.93;;;;;;;0.96;100.00;100119.63;4944705;28;20128;-84
2021/12/30 03:09:04;;;;;;;12.73;7.07;;;;;;;0.97;100.00;100124.84;4952687;28;20047;-83
2021/12/30 03:11:31;;;;;;;13.10;6.70;;;;;;;0.98;100.00;100129.19;4954604;28;20062;-84
2021/12/30 03:13:59;;;;;;;10.73;6.17;;;;;;;0.98;100.00;100125.69;4940489;28;20444;-83
2021/12/30 03:16:32;;;;;;;16.83;7.97;;;;;;;1.06;100.00;100122.31;4970139;28;20663;-84
2021/12/30 03:18:59;;;;;;;14.93;8.70;;;;;;;1.12;100.00;100138.00;4957248;28;20039;-83
2021/12/30 03:21:26;;;;;;;17.73;8.23;;;;;;;1.15;100.00;100120.66;4960482;28;20049;-84
2021/12/30 03:23:54;;;;;;;18.20;7.23;;;;;;;1.16;100.00;100119.78;4960102;28;20049;-84
2021/12/30 03:26:21;;;;;;;13.87;7.23;;;;;;;1.15;100.00;100120.66;4976786;28;20097;-83
2021/12/30 03:28:48;;;;;;;15.03;8.37;;;;;;;1.13;100.00;100120.66;4971895;28;20106;-83
2021/12/30 03:31:17;;;;;;;14.20;8.10;;;;;;;1.16;100.00;100119.78;4953869;28;20174;-84
2021/12/30 03:33:44;;;;;;;13.87;7.83;;;;;;;1.15;100.00;100121.53;4958735;28;20463;-84
2021/12/30 03:36:12;;;;;;;15.33;8.03;;;;;;;1.17;100.00;100127.59;4958503;28;20053;-84
2021/12/30 03:38:43;;;;;;;17.73;8.97;;;;;;;1.17;100.00;100134.53;4940114;28;20046;-84
2021/12/30 03:41:11;;;;;;;14.77;7.63;;;;;;;1.20;100.00;100139.78;4941546;28;20069;-82
2021/12/30 03:43:38;;;;;;;19.73;9.77;;;;;;;1.22;100.00;100145.88;4954593;28;20054;-84
2021/12/30 03:46:06;;;;;;;18.33;9.67;;;;;;;1.21;100.00;100145.00;4959795;28;20046;-84
2021/12/30 03:48:39;;;;;;;14.77;8.20;;;;;;;1.18;100.00;100137.19;4942553;28;20045;-85
2021/12/30 03:51:09;;;;;;;14.93;7.67;;;;;;;1.17;100.00;100132.81;4954352;28;20054;-84
2021/12/30 03:53:41;;;;;;;15.00;8.63;;;;;;;1.20;100.00;100145.00;4960939;28;20138;-83
2021/12/30 03:56:12;;;;;;;20.00;9.13;;;;;;;1.26;100.00;100145.03;4942808;28;20046;-84
2021/12/30 03:58:41;;;;;;;19.87;8.03;;;;;;;1.26;100.00;100151.13;4952509;28;20061;-83
2021/12/30 04:01:09;;;;;;;17.03;8.70;;;;;;;1.28;100.00;100162.41;4957636;28;20038;-83
2021/12/30 04:03:37;;;;;;;18.47;9.17;;;;;;;1.35;100.00;100181.56;4967111;28;20043;-83
2021/12/30 04:06:04;;;;;;;20.70;9.80;;;;;;;1.40;100.00;100191.16;4979047;28;20623;-84
2021/12/30 04:08:31;;;;;;;21.50;10.33;;;;;;;1.39;100.00;100209.34;4976625;28;20050;-83
2021/12/30 04:10:58;;;;;;;18.10;9.53;;;;;;;1.41;100.00;100207.63;4956070;28;20649;-83
2021/12/30 04:13:25;;;;;;;30.77;13.37;;;;;;;1.55;100.00;100208.63;4955833;28;20038;-82
2021/12/30 04:15:52;;;;;;;21.80;11.47;;;;;;;1.63;100.00;100212.19;4943696;28;20038;-83
2021/12/30 04:18:20;;;;;;;24.20;11.70;;;;;;;1.68;100.00;100202.69;4958595;28;20042;-82
2021/12/30 04:20:51;;;;;;;22.73;10.67;;;;;;;1.79;100.00;100207.09;4959087;28;20141;-82
2021/12/30 04:23:18;;;;;;;24.40;12.03;;;;;;;1.83;100.00;100188.88;4958484;28;20042;-83
2021/12/30 04:25:45;;;;;;;24.33;11.80;;;;;;;1.90;100.00;100195.03;4968228;28;20054;-84
2021/12/30 04:28:12;;;;;;;26.80;11.30;;;;;;;1.93;100.00;100197.63;4970190;28;20771;-82
2021/12/30 04:30:39;;;;;;;20.13;11.03;;;;;;;1.99;100.00;100192.47;4939945;28;20496;-85
2021/12/30 04:33:05;;;;;;;20.67;10.60;;;;;;;2.05;100.00;100197.75;4925480;28;20046;-87
2021/12/30 04:35:32;;;;;;;25.57;11.97;;;;;;;2.10;100.00;100197.75;4929322;28;20122;-85
2021/12/30 04:37:59;;;;;;;25.13;11.93;;;;;;;2.15;100.00;100199.53;4945888;28;20411;-85
2021/12/30 04:40:28;;;;;;;24.60;12.30;;;;;;;2.22;100.00;100203.06;4940649;28;20069;-85
2021/12/30 04:42:55;;;;;;;21.50;11.30;;;;;;;2.25;100.00;100198.72;4939565;28;20045;-85
2021/12/30 04:45:22;;;;;;;23.30;12.10;;;;;;;2.31;100.00;100189.19;4934085;28;20043;-84
2021/12/30 04:47:49;;;;;;;22.73;11.90;;;;;;;2.36;100.00;100195.31;4952352;28;20041;-85
2021/12/30 04:50:16;;;;;;;18.20;9.53;;;;;;;2.37;100.00;100194.47;4964982;28;20043;-85
2021/12/30 04:52:43;;;;;;;20.70;10.70;;;;;;;2.40;100.00;100194.47;4959102;28;20518;-84
2021/12/30 04:55:09;;;;;;;18.60;9.03;;;;;;;2.43;100.00;100189.25;4953783;28;20038;-84
2021/12/30 04:57:37;;;;;;;24.23;10.87;;;;;;;2.50;100.00;100197.09;4963053;28;20400;-83
2021/12/30 05:00:08;;;;;;;18.03;8.97;;;;;;;2.48;100.00;100200.59;4961960;28;20076;-84
2021/12/30 05:02:57;;;;;;;21.90;9.77;;;;;;;2.51;100.00;100204.06;4977152;28;20054;-85
2021/12/30 05:05:22;;;;;;;24.93;11.10;;;;;;;2.67;100.00;100214.56;4970636;28;20045;-85
2021/12/30 05:07:48;;;;;;;27.70;12.43;;;;;;;2.72;100.00;100211.13;4971486;28;20043;-84
2021/12/30 05:10:15;;;;;;;24.27;11.97;;;;;;;2.79;100.00;100205.06;4942499;28;20050;-84
2021/12/30 05:12:42;;;;;;;21.00;11.27;;;;;;;2.82;100.00;100209.41;4971844;28;20050;-84
2021/12/30 05:15:09;;;;;;;22.47;11.77;;;;;;;2.90;100.00;100214.66;4934480;28;20129;-84
2021/12/30 05:17:36;;;;;;;24.83;12.23;;;;;;;3.04;100.00;100223.44;4936619;28;20043;-84
2021/12/30 05:20:03;;;;;;;29.43;12.33;;;;;;;3.10;100.00;100231.25;4954753;28;20042;-83
2021/12/30 05:22:30;;;;;;;31.43;14.47;;;;;;;3.19;100.00;100244.31;4961075;28;20046;-84
2021/12/30 05:24:57;;;;;;;25.63;11.70;;;;;;;3.29;100.00;100243.50;4956225;28;20047;-84
2021/12/30 05:27:23;;;;;;;37.17;14.17;;;;;;;3.46;100.00;100243.53;4959362;28;20068;-82
2021/12/30 05:29:50;;;;;;;38.83;14.87;;;;;;;3.48;100.00;100244.41;4975477;28;20526;-83
2021/12/30 05:32:17;;;;;;;29.23;13.77;;;;;;;3.53;100.00;100252.22;4973419;28;20385;-83
2021/12/30 05:34:43;;;;;;;31.67;14.13;;;;;;;3.55;100.00;100255.75;4970318;28;20101;-83
2021/12/30 05:37:10;;;;;;;35.30;14.83;;;;;;;3.64;100.00;100256.63;4961367;28;20424;-84
2021/12/30 05:39:41;;;;;;;35.00;14.27;;;;;;;3.62;100.00;100250.53;4978030;28;20042;-83
2021/12/30 05:42:08;;;;;;;33.03;13.37;;;;;;;3.65;100.00;100247.03;4962411;28;20054;-83
2021/12/30 05:44:34;;;;;;;39.77;16.60;;;;;;;3.76;100.00;100253.13;4956315;28;20050;-83
2021/12/30 05:47:01;;;;;;;75.73;21.90;;;;;;;3.83;100.00;100252.28;4946713;28;20514;-85
2021/12/30 05:49:28;;;;;;;43.77;17.23;;;;;;;3.86;100.00;100252.25;4958536;28;20043;-83
2021/12/30 05:51:55;;;;;;;66.40;19.70;;;;;;;3.90;100.00;100253.16;4978326;28;20534;-83
2021/12/30 05:54:21;;;;;;;43.70;17.57;;;;;;;3.92;100.00;100249.66;4946281;28;20042;-84
2021/12/30 05:56:51;;;;;;;37.93;18.10;;;;;;;3.95;100.00;100261.84;4990169;28;20048;-83
2021/12/30 05:59:17;;;;;;;44.10;17.57;;;;;;;4.08;100.00;100267.94;4959968;28;20041;-84
2021/12/30 06:01:45;;;;;;;37.50;16.73;;;;;;;4.05;100.00;100271.44;4973056;28;20062;-85
2021/12/30 06:04:12;;;;;;;42.10;18.97;;;;;;;4.10;100.00;100268.81;4940721;28;20494;-85
2021/12/30 06:06:38;;;;;;;43.03;19.13;;;;;;;4.10;100.00;100271.44;4960656;28;20531;-85
2021/12/30 06:09:05;;;;;;;42.47;19.10;;;;;;;4.12;100.00;100277.53;4962262;28;20133;-85
2021/12/30 06:11:31;;;;;;;60.53;21.97;;;;;;;4.07;100.00;100280.16;4958267;28;20039;-85
2021/12/30 06:13:58;;;;;;;41.60;18.80;;;;;;;4.16;100.00;100274.91;4954281;28;20042;-85
2021/12/30 06:16:29;;;;;;;43.90;19.53;;;;;;;4.21;100.00;100282.78;4968861;28;20460;-85
2021/12/30 06:18:57;;;;;;;40.63;17.97;;;;;;;4.19;100.00;100287.09;4954453;28;20065;-86
2021/12/30 06:21:24;;;;;;;41.33;17.90;;;;;;;4.14;100.00;100281.91;4956929;28;20435;-88
2021/12/30 06:23:51;;;;;;;44.57;18.40;;;;;;;4.11;100.00;100288.84;4961734;28;20046;-88
2021/12/30 06:26:19;;;;;;;33.67;15.33;;;;;;;4.13;100.00;100289.75;4941772;28;20484;-88
2021/12/30 06:28:47;;;;;;;42.60;18.67;;;;;;;4.16;100.00;100294.97;4945517;28;20046;-89
2021/12/30 06:31:15;;;;;;;46.83;19.43;;;;;;;4.14;100.00;100300.19;4946129;28;20053;-87
2021/12/30 06:33:42;;;;;;;62.53;23.17;;;;;;;4.28;100.00;100307.16;4961802;28;20054;-87
2021/12/30 06:36:09;;;;;;;46.87;18.67;;;;;;;4.33;100.00;100310.66;4946376;28;20038;-88
2021/12/30 06:38:36;;;;;;;48.63;21.10;;;;;;;4.28;100.00;100310.63;4960738;28;20050;-88
2021/12/30 06:41:04;;;;;;;46.10;19.47;;;;;;;4.26;100.00;100309.78;4945019;28;20133;-88
2021/12/30 06:43:30;;;;;;;53.03;21.50;;;;;;;4.30;100.00;100319.38;4945048;28;20046;-87
2021/12/30 06:45:57;;;;;;;48.33;20.33;;;;;;;4.35;100.00;100322.84;4962823;28;20488;-87
2021/12/30 06:48:24;;;;;;;47.57;21.60;;;;;;;4.32;100.00;100328.09;4960705;28;20048;-87
2021/12/30 06:50:52;;;;;;;45.50;20.60;;;;;;;4.35;100.00;100328.06;4962582;28;20046;-88
2021/12/30 06:53:20;;;;;;;55.77;21.57;;;;;;;4.37;100.00;100339.41;4944209;28;20038;-88
2021/12/30 06:55:48;;;;;;;47.63;20.63;;;;;;;4.33;100.00;100337.66;4954805;28;20046;-87
2021/12/30 06:58:15;;;;;;;55.70;21.77;;;;;;;4.41;100.00;100342.91;4942969;28;20042;-86
2021/12/30 07:00:43;;;;;;;44.33;18.67;;;;;;;4.39;100.00;100339.41;4951356;28;20046;-87
2021/12/30 07:03:10;;;;;;;53.20;21.60;;;;;;;4.36;100.00;100336.78;4961287;28;20558;-87
2021/12/30 07:05:37;;;;;;;45.77;20.17;;;;;;;4.31;100.00;100339.41;4959239;28;20141;-85
2021/12/30 07:08:04;;;;;;;56.80;19.97;;;;;;;4.29;100.00;100338.56;4959603;28;20066;-86
2021/12/30 07:10:31;;;;;;;44.77;19.90;;;;;;;4.25;100.00;100334.19;4955784;28;20089;-85
2021/12/30 07:12:58;;;;;;;42.97;21.40;;;;;;;4.29;100.00;100346.41;4961092;28;20077;-86
2021/12/30 07:15:24;;;;;;;40.67;20.80;;;;;;;4.27;100.00;100352.47;4973839;28;20038;-86
2021/12/30 07:17:54;;;;;;;48.13;22.27;;;;;;;4.24;100.00;100358.59;4943991;28;20050;-85
2021/12/30 07:20:21;;;;;;;41.13;19.57;;;;;;;4.24;100.00;100369.03;4967025;28;20057;-87
2021/12/30 07:22:48;;;;;;;49.80;21.00;;;;;;;4.44;100.00;100361.19;4975970;28;20534;-85
2021/12/30 07:25:18;;;;;;;75.63;28.00;;;;;;;4.43;100.00;100355.09;4959325;28;20640;-86
2021/12/30 07:27:48;;;;;;;49.13;23.73;;;;;;;4.36;100.00;100350.72;4977326;28;20042;-86
2021/12/30 07:30:16;;;;;;;55.60;23.00;;;;;;;4.38;100.00;100356.84;4959741;28;20056;-86
2021/12/30 07:32:43;;;;;;;53.47;24.83;;;;;;;4.41;100.00;100355.97;4947226;28;21175;-87
2021/12/30 07:35:10;;;;;;;48.53;22.27;;;;;;;4.33;100.00;100353.34;4962360;28;20046;-85
2021/12/30 07:37:36;;;;;;;49.50;23.37;;;;;;;4.42;100.00;100358.59;4957916;28;20073;-87
2021/12/30 07:40:04;;;;;;;48.47;23.77;;;;;;;4.36;100.00;100353.34;4943484;28;20048;-87
2021/12/30 07:42:30;;;;;;;50.53;21.50;;;;;;;4.39;100.00;100365.56;4946997;28;20046;-83
2021/12/30 07:44:57;;;;;;;66.23;22.43;;;;;;;4.47;100.00;100363.81;4961844;28;20042;-82
2021/12/30 07:47:24;;;;;;;217.17;126.13;;;;;;;4.47;100.00;100376.91;4957115;28;20129;-84
2021/12/30 07:49:50;;;;;;;143.30;70.60;;;;;;;4.49;100.00;100383.88;4950921;28;20043;-85
2021/12/30 07:52:17;;;;;;;110.70;53.20;;;;;;;4.69;100.00;100377.75;4955074;28;20047;-87
2021/12/30 07:54:44;;;;;;;93.60;49.87;;;;;;;4.74;100.00;100383.84;4940476;28;20501;-86
2021/12/30 07:57:12;;;;;;;53.70;24.53;;;;;;;4.74;100.00;100379.50;4951239;28;20046;-86
2021/12/30 07:59:39;;;;;;;47.50;21.13;;;;;;;4.72;100.00;100375.16;4958237;28;20092;-87
2021/12/30 08:02:06;;;;;;;112.40;36.73;;;;;;;4.69;100.00;100376.00;4957720;28;20049;-87
2021/12/30 08:04:33;;;;;;;62.27;30.60;;;;;;;4.71;100.00;100386.50;4981521;28;20122;-88
2021/12/30 08:06:59;;;;;;;48.20;23.23;;;;;;;4.74;100.00;100395.19;4940480;28;20043;-85
2021/12/30 08:09:26;;;;;;;61.47;36.83;;;;;;;4.80;100.00;100394.31;4958203;28;20035;-85
2021/12/30 08:11:53;;;;;;;45.70;21.57;;;;;;;4.79;100.00;100390.84;4940862;28;20412;-88
2021/12/30 08:14:20;;;;;;;45.93;20.90;;;;;;;4.84;100.00;100390.81;4935335;28;20046;-87
2021/12/30 08:16:46;;;;;;;45.50;18.57;;;;;;;4.86;100.00;100402.16;4951551;28;20057;-87
2021/12/30 08:19:13;;;;;;;50.83;23.63;;;;;;;4.94;100.00;100402.13;4966469;28;20038;-88
2021/12/30 08:21:42;;;;;;;40.83;18.60;;;;;;;4.89;100.00;100410.00;4994231;28;20046;-88
2021/12/30 08:24:11;;;;;;;44.67;20.13;;;;;;;4.88;100.00;100394.31;4943689;28;20412;-85
2021/12/30 08:26:38;;;;;;;42.47;18.87;;;;;;;4.82;100.00;100402.16;4955830;28;20053;-87
2021/12/30 08:29:05;;;;;;;43.83;18.83;;;;;;;4.89;100.00;100398.69;4958401;28;20043;-87
2021/12/30 08:31:33;;;;;;;41.97;18.77;;;;;;;4.99;100.00;100387.31;4938253;28;20114;-87
2021/12/30 08:34:01;;;;;;;39.63;18.00;;;;;;;5.02;100.00;100390.78;4940442;28;20103;-87
2021/12/30 08:36:28;;;;;;;39.00;17.73;;;;;;;5.02;100.00;100389.91;4948811;28;20039;-88
2021/12/30 08:38:58;;;;;;;37.23;17.73;;;;;;;5.02;100.00;100395.13;4955893;28;20554;-87
2021/12/30 08:41:24;;;;;;;33.90;16.57;;;;;;;5.02;100.00;100409.09;4955883;28;20049;-88
2021/12/30 08:43:51;;;;;;;28.07;13.67;;;;;;;4.94;100.00;100416.09;4958910;28;20539;-88
2021/12/30 08:46:20;;;;;;;29.13;13.70;;;;;;;4.91;100.00;100397.78;4955652;28;20435;-87
2021/12/30 08:48:47;;;;;;;25.90;13.27;;;;;;;4.85;100.00;100400.41;4969662;28;20047;-88
2021/12/30 08:51:14;;;;;;;18.20;10.47;;;;;;;4.82;100.00;100407.41;4966772;28;20034;-87
2021/12/30 08:53:41;;;;;;;27.17;14.13;;;;;;;4.80;100.00;100408.28;4970247;28;20084;-87
2021/12/30 08:56:12;;;;;;;20.17;10.80;;;;;;;4.82;100.00;100408.28;4956293;28;20042;-88
2021/12/30 08:58:40;;;;;;;25.03;11.33;;;;;;;4.79;100.00;100422.25;4954339;28;20094;-88
2021/12/30 09:01:09;;;;;;;17.87;9.33;;;;;;;4.79;100.00;100416.09;4957631;28;20038;-88
2021/12/30 09:03:36;;;;;;;15.53;8.77;;;;;;;4.77;100.00;100415.25;4951213;28;20121;-85
2021/12/30 09:06:05;;;;;;;17.60;9.17;;;;;;;4.76;100.00;100417.00;4950335;28;20504;-87
2021/12/30 09:08:32;;;;;;;18.50;9.87;;;;;;;4.74;100.00;100420.50;4955783;28;20508;-88
2021/12/30 09:10:59;;;;;;;15.47;7.97;;;;;;;4.71;100.00;100426.63;4934527;28;20052;-86
2021/12/30 09:13:26;;;;;;;16.00;8.30;;;;;;;4.70;100.00;100429.19;4975459;28;20097;-91
2021/12/30 09:15:55;;;;;;;32.80;12.37;;;;;;;4.72;100.00;100430.09;4960010;28;20043;-91
2021/12/30 09:18:25;;;;;;;15.93;8.93;;;;;;;4.68;100.00;100433.56;4958795;28;20038;-90
2021/12/30 09:20:52;;;;;;;14.50;8.20;;;;;;;4.65;100.00;100446.66;4959762;28;20114;-90
2021/12/30 09:23:18;;;;;;;16.83;9.03;;;;;;;4.69;100.00;100440.53;4958648;28;20042;-90
2021/12/30 09:25:45;;;;;;;12.40;7.20;;;;;;;4.66;100.00;100438.81;4943508;28;20046;-90
2021/12/30 09:28:13;;;;;;;10.33;5.97;;;;;;;4.64;100.00;100440.56;4959090;28;20046;-91
2021/12/30 09:30:45;;;;;;;11.37;6.00;;;;;;;4.61;100.00;100437.06;4959008;28;20068;-92
2021/12/30 09:33:15;;;;;;;11.37;6.73;;;;;;;4.60;100.00;100428.34;4943000;28;20046;-91
2021/12/30 09:35:47;;;;;;;10.93;6.23;;;;;;;4.58;100.00;100426.59;4958651;28;20480;-90
2021/12/30 09:38:22;;;;;;;13.60;6.90;;;;;;;4.57;100.00;100425.72;4974599;28;20116;-91
2021/12/30 09:40:49;;;;;;;16.33;8.37;;;;;;;4.56;100.00;100426.59;4958925;28;20039;-90
2021/12/30 09:43:16;;;;;;;12.27;6.83;;;;;;;4.53;100.00;100426.59;4955052;28;20042;-90
2021/12/30 09:45:44;;;;;;;15.00;8.40;;;;;;;4.58;100.00;100447.53;4957344;28;20034;-90
2021/12/30 09:48:16;;;;;;;18.23;9.77;;;;;;;4.57;100.00;100446.66;4943034;28;20421;-91
2021/12/30 09:50:46;;;;;;;17.00;8.13;;;;;;;4.59;100.00;100457.13;4958360;28;20047;-91
2021/12/30 09:53:13;;;;;;;12.57;7.30;;;;;;;4.59;100.00;100454.50;4970417;28;20138;-91
2021/12/30 09:55:41;;;;;;;14.70;8.43;;;;;;;4.58;100.00;100452.75;4955359;28;20484;-92
2021/12/30 09:58:08;;;;;;;13.57;8.20;;;;;;;4.62;100.00;100450.13;4955681;28;20051;-91
2021/12/30 10:00:35;;;;;;;13.23;7.13;;;;;;;4.56;100.00;100449.28;4955356;28;20134;-91
2021/12/30 10:03:03;;;;;;;21.97;10.60;;;;;;;4.61;100.00;100451.00;4940367;28;20042;-90
2021/12/30 10:05:34;;;;;;;31.93;13.17;;;;;;;4.69;100.00;100438.78;4938564;28;20113;-91
2021/12/30 10:08:19;;;;;;;23.80;11.97;;;;;;;4.73;100.00;100437.06;4971493;28;20424;-90
2021/12/30 10:10:55;;;;;;;20.73;9.83;;;;;;;4.79;100.00;100437.03;4955064;28;20070;-91
2021/12/30 10:13:28;;;;;;;17.30;9.90;;;;;;;4.78;100.00;100430.94;4938457;28;20134;-91
2021/12/30 10:16:01;;;;;;;19.67;10.10;;;;;;;4.83;100.00;100411.75;4956737;28;20061;-91
2021/12/30 10:18:47;;;;;;;23.73;11.40;;;;;;;4.93;100.00;100403.00;4958124;28;20070;-91
2021/12/30 10:21:19;;;;;;;20.27;9.90;;;;;;;4.96;100.00;100401.28;4943310;28;20054;-92
2021/12/30 10:23:53;;;;;;;24.73;10.63;;;;;;;5.03;100.00;100400.38;4941701;28;20081;-91
2021/12/30 10:26:19;;;;;;;14.57;8.43;;;;;;;5.01;100.00;100390.78;4927710;28;20074;-91
2021/12/30 10:29:05;;;;;;;14.43;8.10;;;;;;;5.03;100.00;100395.13;4958578;28;20617;-91
2021/12/30 10:31:33;;;;;;;24.93;13.93;;;;;;;5.07;100.00;100406.50;4959474;28;20707;-91
2021/12/30 10:34:04;;;;;;;27.90;13.53;;;;;;;5.11;100.00;100392.50;4942315;28;20043;-91
2021/12/30 10:36:32;;;;;;;21.73;12.60;;;;;;;5.15;100.00;100390.75;4927197;28;20392;-91
2021/12/30 10:39:32;;;;;;;13.40;7.93;;;;;;;5.15;100.00;100389.00;5059006;23;20045;-84
2021/12/30 10:41:58;;;;;;;22.53;10.37;;;;;;;5.18;100.00;100403.84;4958352;28;20052;-84
2021/12/30 10:44:55;;;;;;;17.90;9.27;;;;;;;5.18;100.00;100401.22;4982714;28;20414;-86
2021/12/30 10:47:27;;;;;;;22.20;10.57;;;;;;;5.22;100.00;100406.47;4973769;28;20419;-85
2021/12/30 10:50:07;;;;;;;25.00;11.23;;;;;;;5.27;100.00;100406.44;4976099;28;20037;-85
2021/12/30 10:52:44;;;;;;;23.90;13.07;;;;;;;5.28;100.00;100406.41;4967116;28;20137;-87
2021/12/30 10:55:13;;;;;;;21.63;12.27;;;;;;;5.30;100.00;100407.31;4989842;28;20042;-87
2021/12/30 10:57:40;;;;;;;22.67;11.13;;;;;;;5.31;100.00;100406.44;4968404;28;20054;-88
2021/12/30 11:00:08;;;;;;;20.47;10.30;;;;;;;5.35;100.00;100402.03;4961159;28;20042;-86
2021/12/30 11:02:37;;;;;;;22.63;10.40;;;;;;;5.41;100.00;100416.88;4987502;28;20053;-85
2021/12/30 11:05:09;;;;;;;22.07;10.67;;;;;;;5.45;100.00;100413.34;4962889;28;20129;-85
2021/12/30 11:07:37;;;;;;;24.37;11.33;;;;;;;5.49;100.00;100417.72;4963725;28;20499;-87
2021/12/30 11:10:04;;;;;;;30.50;16.57;;;;;;;5.53;100.00;100411.56;4979258;28;20049;-86
2021/12/30 11:12:33;;;;;;;23.07;13.33;;;;;;;5.56;100.00;100412.44;4962865;28;20041;-84
2021/12/30 11:15:05;;;;;;;22.83;10.10;;;;;;;5.56;100.00;100408.97;4971635;28;20446;-88
2021/12/30 11:17:35;;;;;;;20.50;9.33;;;;;;;5.56;100.00;100388.00;4963357;28;20054;-85